Time;durP1;ratioP1;P1;durP2;ratioP2;P2;SDS_P1;SDS_P2;PMS_P1;PMS_P2;Temp;Humidity;BMP_temperature;BMP_pressure;BME280_temperature;BME280_humidity;BME280_pressure;Samples;Min_cycle;Max_cycle;Signal;HPM_P1;HPM_P2
2021/04/30 00:01:19;;;;;;;19.85;11.40;;;7.20;99.90;;;;;;5105467;28;20095;-83
2021/04/30 00:03:45;;;;;;;24.75;13.60;;;7.30;99.90;;;;;;5096006;28;20024;-86
2021/04/30 00:06:11;;;;;;;20.58;13.15;;;7.20;99.90;;;;;;5105445;28;20401;-84
2021/04/30 00:08:39;;;;;;;23.20;14.15;;;7.30;99.90;;;;;;5104115;28;20052;-86
2021/04/30 00:11:08;;;;;;;18.85;11.73;;;7.30;99.90;;;;;;5113261;28;20024;-83
2021/04/30 00:13:36;;;;;;;21.20;12.32;;;7.30;99.90;;;;;;5112229;28;20420;-84
2021/04/30 00:16:03;;;;;;;23.80;11.75;;;7.30;99.90;;;;;;5103996;28;20016;-85
2021/04/30 00:18:29;;;;;;;18.08;11.73;;;7.30;99.90;;;;;;5106261;28;20028;-86
2021/04/30 00:20:57;;;;;;;16.95;10.95;;;7.30;99.90;;;;;;5102329;28;20019;-85
2021/04/30 00:23:26;;;;;;;18.20;12.50;;;7.30;99.90;;;;;;5102658;28;20027;-85
2021/04/30 00:25:54;;;;;;;24.48;13.27;;;7.30;99.90;;;;;;5099296;28;20015;-85
2021/04/30 00:28:19;;;;;;;20.83;11.60;;;7.40;99.90;;;;;;5101875;28;20039;-84
2021/04/30 00:30:45;;;;;;;19.85;10.82;;;7.40;99.90;;;;;;5107727;28;20027;-84
2021/04/30 00:33:14;;;;;;;18.75;11.13;;;7.40;99.90;;;;;;5098111;28;20020;-85
2021/04/30 00:35:42;;;;;;;20.20;11.60;;;7.40;99.90;;;;;;5097151;28;20028;-84
2021/04/30 00:38:09;;;;;;;17.95;10.23;;;7.40;99.90;;;;;;5100347;28;20019;-85
2021/04/30 00:40:36;;;;;;;18.17;10.55;;;7.40;99.90;;;;;;5102883;28;20043;-84
2021/04/30 00:43:03;;;;;;;16.30;10.20;;;7.50;99.90;;;;;;5105829;28;20020;-83
2021/04/30 00:45:28;;;;;;;16.65;11.00;;;7.50;99.90;;;;;;5095143;28;20745;-83
2021/04/30 00:47:54;;;;;;;18.60;11.43;;;7.50;99.90;;;;;;5101361;28;20157;-84
2021/04/30 00:50:23;;;;;;;19.95;11.77;;;7.50;99.90;;;;;;5100152;28;20024;-82
2021/04/30 00:52:49;;;;;;;18.50;10.95;;;7.50;99.90;;;;;;5098850;28;20023;-86
2021/04/30 00:55:16;;;;;;;21.90;12.18;;;7.50;99.90;;;;;;5101104;28;20048;-85
2021/04/30 00:57:47;;;;;;;22.05;12.50;;;7.50;99.90;;;;;;5107860;28;20470;-84
2021/04/30 01:00:14;;;;;;;19.75;12.50;;;7.50;99.90;;;;;;5102514;28;20073;-85
2021/04/30 01:02:40;;;;;;;17.13;12.30;;;7.50;99.90;;;;;;5106883;28;20128;-83
2021/04/30 01:05:07;;;;;;;21.50;12.88;;;7.50;99.90;;;;;;5098800;28;20020;-84
2021/04/30 01:07:33;;;;;;;17.45;11.68;;;7.50;99.90;;;;;;5102897;28;20043;-84
2021/04/30 01:09:59;;;;;;;19.67;11.68;;;7.50;99.90;;;;;;5098277;28;20024;-85
2021/04/30 01:12:25;;;;;;;18.95;12.15;;;7.50;99.90;;;;;;5096157;28;20099;-87
2021/04/30 01:14:51;;;;;;;22.15;12.07;;;7.50;99.90;;;;;;5107526;28;20016;-86
2021/04/30 01:17:18;;;;;;;16.98;10.63;;;7.50;99.90;;;;;;5109212;28;20035;-84
2021/04/30 01:19:44;;;;;;;20.15;11.60;;;7.50;99.90;;;;;;5106431;28;20377;-84
2021/04/30 01:22:10;;;;;;;18.92;10.82;;;7.50;99.90;;;;;;5103655;28;20057;-85
2021/04/30 01:24:35;;;;;;;15.60;10.75;;;7.50;99.90;;;;;;5106103;28;20008;-85
2021/04/30 01:27:01;;;;;;;18.67;11.02;;;7.50;99.90;;;;;;5111171;28;20032;-83
2021/04/30 01:29:27;;;;;;;19.30;10.52;;;7.50;99.90;;;;;;5097409;28;20024;-82
2021/04/30 01:31:53;;;;;;;17.27;11.07;;;7.50;99.90;;;;;;5108342;28;20030;-85
2021/04/30 01:34:19;;;;;;;15.90;10.40;;;7.50;99.90;;;;;;5115295;28;20511;-86
2021/04/30 01:36:44;;;;;;;20.50;12.25;;;7.50;99.90;;;;;;5115184;28;20030;-84
2021/04/30 01:39:13;;;;;;;17.73;11.10;;;7.50;99.90;;;;;;5116729;28;20511;-85
2021/04/30 01:41:41;;;;;;;22.95;11.80;;;7.50;99.90;;;;;;5115218;28;20530;-85
2021/04/30 01:44:13;;;;;;;20.50;10.63;;;7.50;99.90;;;;;;5115381;28;20381;-85
2021/04/30 01:46:40;;;;;;;17.00;10.73;;;7.50;99.90;;;;;;5114893;28;20027;-85
2021/04/30 01:49:07;;;;;;;17.00;11.65;;;7.60;99.90;;;;;;5106359;28;20481;-85
2021/04/30 01:51:35;;;;;;;17.83;12.30;;;7.60;99.90;;;;;;5104689;28;20064;-84
2021/04/30 01:54:03;;;;;;;17.52;11.43;;;7.60;99.90;;;;;;5101852;28;20050;-85
2021/04/30 01:56:29;;;;;;;18.30;10.55;;;7.60;99.90;;;;;;5107355;28;20030;-84
2021/04/30 01:58:54;;;;;;;15.32;9.95;;;7.60;99.90;;;;;;5103048;28;20016;-84
2021/04/30 02:01:20;;;;;;;13.50;9.25;;;7.60;99.90;;;;;;5094437;28;20024;-84
2021/04/30 02:03:46;;;;;;;17.95;9.35;;;7.60;99.90;;;;;;5094394;28;20049;-85
2021/04/30 02:06:11;;;;;;;18.65;10.57;;;7.60;99.90;;;;;;5095199;28;20089;-84
2021/04/30 02:08:37;;;;;;;18.02;9.90;;;7.60;99.90;;;;;;5093257;28;20056;-85
2021/04/30 02:11:04;;;;;;;15.07;9.18;;;7.60;99.90;;;;;;5095531;28;20153;-86
2021/04/30 02:13:29;;;;;;;18.52;11.02;;;7.70;99.90;;;;;;5094362;28;20028;-86
2021/04/30 02:15:55;;;;;;;15.32;10.23;;;7.70;99.90;;;;;;5094464;28;20026;-86
2021/04/30 02:18:22;;;;;;;14.60;9.77;;;7.70;99.90;;;;;;5093819;28;20048;-85
2021/04/30 02:20:47;;;;;;;14.02;9.57;;;7.70;99.90;;;;;;5094170;28;20392;-85
2021/04/30 02:23:13;;;;;;;17.17;10.70;;;7.70;99.90;;;;;;5093542;28;20103;-85
2021/04/30 02:25:39;;;;;;;17.00;9.80;;;7.70;99.90;;;;;;5093890;28;20039;-85
2021/04/30 02:28:05;;;;;;;16.80;11.13;;;7.70;99.90;;;;;;5095172;28;20039;-86
2021/04/30 02:30:34;;;;;;;16.83;9.82;;;7.70;99.90;;;;;;5093834;28;20012;-85
2021/04/30 02:33:01;;;;;;;18.13;9.43;;;7.70;99.90;;;;;;5093590;28;20024;-85
2021/04/30 02:35:28;;;;;;;12.57;9.57;;;7.70;99.90;;;;;;5093671;28;20021;-85
2021/04/30 02:37:55;;;;;;;14.85;9.32;;;7.70;99.90;;;;;;5093617;28;20032;-85
2021/04/30 02:40:25;;;;;;;14.27;9.68;;;7.70;99.90;;;;;;5093470;28;20012;-85
2021/04/30 02:42:51;;;;;;;15.57;8.73;;;7.70;99.90;;;;;;5093821;28;20035;-85
2021/04/30 02:45:17;;;;;;;14.00;8.80;;;7.70;99.90;;;;;;5093640;28;20031;-85
2021/04/30 02:47:48;;;;;;;13.43;9.85;;;7.70;99.90;;;;;;5093773;28;20024;-85
2021/04/30 02:50:19;;;;;;;19.90;10.75;;;7.70;99.90;;;;;;5093979;28;20482;-84
2021/04/30 02:52:47;;;;;;;19.85;11.30;;;7.70;99.90;;;;;;5093693;28;20045;-83
2021/04/30 02:55:14;;;;;;;17.95;11.38;;;7.70;99.90;;;;;;5093328;28;20028;-84
2021/04/30 02:57:41;;;;;;;18.52;10.90;;;7.70;99.90;;;;;;5094574;28;20103;-84
2021/04/30 03:00:09;;;;;;;18.63;10.80;;;7.70;99.90;;;;;;5093887;28;20044;-84
2021/04/30 03:02:35;;;;;;;13.90;10.48;;;7.70;99.90;;;;;;5102789;28;20051;-83
2021/04/30 03:05:00;;;;;;;17.83;11.43;;;7.70;99.90;;;;;;5096065;28;20058;-84
2021/04/30 03:07:26;;;;;;;17.50;11.32;;;7.80;99.90;;;;;;5093155;28;20063;-84
2021/04/30 03:09:51;;;;;;;15.60;10.07;;;7.70;99.90;;;;;;5093634;28;20020;-85
2021/04/30 03:12:17;;;;;;;16.27;10.52;;;7.70;99.90;;;;;;5093147;28;20531;-83
2021/04/30 03:14:43;;;;;;;14.90;10.35;;;7.70;99.90;;;;;;5092902;28;20027;-84
2021/04/30 03:17:08;;;;;;;15.50;9.38;;;7.70;99.90;;;;;;5092962;28;20478;-83
2021/04/30 03:19:34;;;;;;;17.75;9.48;;;7.70;99.90;;;;;;5091891;28;20095;-84
2021/04/30 03:22:00;;;;;;;14.05;9.43;;;7.70;99.90;;;;;;5092460;28;20028;-83
2021/04/30 03:24:25;;;;;;;13.35;8.88;;;7.70;99.90;;;;;;5092771;28;20114;-83
2021/04/30 03:26:51;;;;;;;13.68;9.07;;;7.70;99.90;;;;;;5092605;28;20035;-82
2021/04/30 03:29:16;;;;;;;16.52;8.88;;;7.70;99.90;;;;;;5092516;28;20038;-83
2021/04/30 03:31:42;;;;;;;17.98;9.73;;;7.60;99.90;;;;;;5092486;28;20031;-84
2021/04/30 03:34:08;;;;;;;13.63;9.43;;;7.70;99.90;;;;;;5092610;28;20484;-83
2021/04/30 03:36:34;;;;;;;18.08;9.98;;;7.60;99.90;;;;;;5092774;28;20370;-84
2021/04/30 03:39:02;;;;;;;24.88;12.35;;;7.60;99.90;;;;;;5093937;28;20036;-83
2021/04/30 03:41:29;;;;;;;21.23;11.90;;;7.60;99.90;;;;;;5093375;28;20027;-84
2021/04/30 03:43:55;;;;;;;19.70;10.35;;;7.60;99.90;;;;;;5093180;28;20031;-84
2021/04/30 03:46:21;;;;;;;17.17;10.25;;;7.60;99.90;;;;;;5092532;28;20031;-84
2021/04/30 03:48:46;;;;;;;18.58;10.45;;;7.60;99.90;;;;;;5093556;28;20042;-83
2021/04/30 03:51:12;;;;;;;18.10;10.25;;;7.60;99.90;;;;;;5093232;28;20024;-84
2021/04/30 03:53:37;;;;;;;16.90;10.60;;;7.60;99.90;;;;;;5092174;28;20020;-84
2021/04/30 03:56:03;;;;;;;17.73;9.57;;;7.60;99.90;;;;;;5091925;28;20114;-83
2021/04/30 03:58:29;;;;;;;13.32;8.85;;;7.60;99.90;;;;;;5092244;28;20474;-84
2021/04/30 04:00:54;;;;;;;15.43;10.10;;;7.60;99.90;;;;;;5093418;28;20036;-83
2021/04/30 04:03:20;;;;;;;17.77;9.95;;;7.60;99.90;;;;;;5092044;28;20013;-84
2021/04/30 04:05:46;;;;;;;18.65;11.80;;;7.60;99.90;;;;;;5092287;28;20482;-83
2021/04/30 04:08:11;;;;;;;15.27;9.25;;;7.60;99.90;;;;;;5092881;28;20414;-83
2021/04/30 04:10:38;;;;;;;12.73;8.88;;;7.60;99.90;;;;;;5091827;28;20020;-84
2021/04/30 04:13:24;;;;;;;14.82;8.80;;;7.60;99.90;;;;;;5092011;28;20110;-83
2021/04/30 04:15:51;;;;;;;14.60;8.82;;;7.60;99.90;;;;;;5091979;28;20028;-84
2021/04/30 04:18:18;;;;;;;15.15;9.00;;;7.60;99.90;;;;;;5093171;28;20016;-84
2021/04/30 04:20:44;;;;;;;12.90;8.32;;;7.70;99.90;;;;;;5093190;28;20060;-83
2021/04/30 04:23:10;;;;;;;14.10;8.57;;;7.70;99.90;;;;;;5091963;28;20048;-83
2021/04/30 04:25:37;;;;;;;14.93;8.63;;;7.80;99.90;;;;;;5092963;28;20493;-84
2021/04/30 04:28:03;;;;;;;14.27;9.05;;;7.80;99.90;;;;;;5091830;28;20501;-83
2021/04/30 04:30:29;;;;;;;18.52;9.65;;;7.80;99.90;;;;;;5093025;28;20107;-84
2021/04/30 04:32:54;;;;;;;15.65;8.95;;;7.80;99.90;;;;;;5095075;28;20063;-84
2021/04/30 04:35:21;;;;;;;14.27;9.60;;;7.80;99.90;;;;;;5096093;28;20038;-84
2021/04/30 04:37:47;;;;;;;18.08;9.38;;;7.90;99.90;;;;;;5096104;28;20059;-84
2021/04/30 04:40:13;;;;;;;22.48;11.85;;;7.80;99.90;;;;;;5095822;28;20020;-85
2021/04/30 04:42:41;;;;;;;18.23;11.02;;;7.90;99.90;;;;;;5095832;28;20034;-84
2021/04/30 04:45:08;;;;;;;19.23;10.80;;;7.80;99.90;;;;;;5096923;28;20072;-84
2021/04/30 04:47:33;;;;;;;18.15;10.50;;;7.90;99.90;;;;;;5096276;28;20028;-83
2021/04/30 04:49:59;;;;;;;16.60;12.02;;;7.90;99.90;;;;;;5095535;28;20045;-85
2021/04/30 04:52:25;;;;;;;16.58;11.93;;;7.90;99.90;;;;;;5097111;28;20024;-83
2021/04/30 04:54:51;;;;;;;19.02;12.00;;;7.90;99.90;;;;;;5095583;28;20024;-84
2021/04/30 04:57:17;;;;;;;16.85;12.45;;;7.90;99.90;;;;;;5096937;28;20247;-84
2021/04/30 04:59:43;;;;;;;18.40;11.05;;;7.90;99.90;;;;;;5095586;28;20024;-84
2021/04/30 05:02:08;;;;;;;18.60;10.93;;;8.00;99.90;;;;;;5095579;28;20047;-85
2021/04/30 05:04:34;;;;;;;22.17;11.70;;;8.00;99.90;;;;;;5096718;28;20026;-84
2021/04/30 05:06:59;;;;;;;24.33;11.88;;;8.00;99.90;;;;;;5095646;28;20054;-85
2021/04/30 05:09:27;;;;;;;16.80;10.65;;;8.00;99.90;;;;;;5095303;28;20206;-84
2021/04/30 05:11:54;;;;;;;19.50;11.27;;;8.00;99.90;;;;;;5095437;28;20120;-85
2021/04/30 05:14:19;;;;;;;18.25;10.95;;;8.00;99.90;;;;;;5096669;28;20028;-84
2021/04/30 05:16:45;;;;;;;18.27;11.10;;;8.00;99.90;;;;;;5095372;28;20020;-86
2021/04/30 05:19:11;;;;;;;15.75;10.52;;;8.00;99.90;;;;;;5095023;28;20131;-83
2021/04/30 05:21:39;;;;;;;16.10;11.57;;;8.00;99.90;;;;;;5095135;28;20020;-84
2021/04/30 05:24:05;;;;;;;19.05;11.60;;;8.00;99.90;;;;;;5094914;28;20032;-84
2021/04/30 05:26:31;;;;;;;15.48;10.25;;;8.10;99.90;;;;;;5095020;28;20031;-85
2021/04/30 05:28:57;;;;;;;16.55;9.93;;;8.10;99.90;;;;;;5096076;28;20028;-84
2021/04/30 05:31:23;;;;;;;14.95;9.73;;;8.10;99.90;;;;;;5094929;28;20020;-84
2021/04/30 05:33:49;;;;;;;17.83;9.68;;;8.10;99.90;;;;;;5096360;28;20035;-85
2021/04/30 05:36:15;;;;;;;14.98;8.52;;;8.10;99.90;;;;;;5094860;28;20036;-83
2021/04/30 05:38:40;;;;;;;18.33;9.77;;;8.20;99.90;;;;;;5095100;28;20035;-84
2021/04/30 05:41:06;;;;;;;14.38;10.07;;;8.20;99.90;;;;;;5092680;28;20158;-84
2021/04/30 05:43:31;;;;;;;17.20;10.35;;;8.20;99.90;;;;;;5096051;28;20029;-84
2021/04/30 05:45:57;;;;;;;16.08;9.93;;;8.20;99.90;;;;;;5101096;28;20024;-85
2021/04/30 05:48:24;;;;;;;14.38;9.45;;;8.20;99.90;;;;;;5113781;28;20040;-85
2021/04/30 05:50:49;;;;;;;14.15;9.55;;;8.30;99.90;;;;;;5125885;27;20089;-85
2021/04/30 05:53:15;;;;;;;16.20;9.57;;;8.30;99.90;;;;;;5095150;28;20032;-85
2021/04/30 05:55:41;;;;;;;17.65;10.50;;;8.30;99.90;;;;;;5093570;28;20024;-84
2021/04/30 05:58:06;;;;;;;19.20;9.95;;;8.30;99.90;;;;;;5093015;28;20024;-85
2021/04/30 06:00:32;;;;;;;16.50;10.13;;;8.30;99.90;;;;;;5093492;28;20016;-85
2021/04/30 06:02:57;;;;;;;17.05;9.40;;;8.30;99.90;;;;;;5091974;28;20065;-85
2021/04/30 06:05:23;;;;;;;17.17;9.52;;;8.30;99.90;;;;;;5092422;28;20027;-85
2021/04/30 06:07:49;;;;;;;17.67;8.50;;;8.40;99.90;;;;;;5093360;28;20100;-85
2021/04/30 06:10:14;;;;;;;16.08;9.55;;;8.40;99.90;;;;;;5092077;28;20027;-84
2021/04/30 06:12:41;;;;;;;19.08;8.85;;;8.40;99.90;;;;;;5094635;28;20020;-84
2021/04/30 06:15:08;;;;;;;15.43;8.27;;;8.40;99.90;;;;;;5093837;28;20077;-85
2021/04/30 06:17:34;;;;;;;18.88;9.38;;;8.40;99.90;;;;;;5093627;28;20051;-84
2021/04/30 06:19:59;;;;;;;19.48;9.40;;;8.40;99.90;;;;;;5093465;28;20440;-85
2021/04/30 06:22:25;;;;;;;17.75;9.20;;;8.40;99.90;;;;;;5095077;28;20028;-84
2021/04/30 06:24:51;;;;;;;18.23;9.77;;;8.40;99.90;;;;;;5094668;28;20385;-84
2021/04/30 06:27:17;;;;;;;16.20;9.43;;;8.40;99.90;;;;;;5093288;28;20089;-84
2021/04/30 06:29:42;;;;;;;16.00;9.90;;;8.40;99.90;;;;;;5094823;28;20024;-84
2021/04/30 06:32:08;;;;;;;17.00;10.40;;;8.40;99.90;;;;;;5093475;28;20020;-84
2021/04/30 06:34:34;;;;;;;26.67;11.38;;;8.50;99.90;;;;;;5093263;28;20027;-84
2021/04/30 06:36:59;;;;;;;16.73;11.20;;;8.40;99.90;;;;;;5093308;28;20024;-84
2021/04/30 06:39:25;;;;;;;17.33;10.38;;;8.40;99.90;;;;;;5093289;28;20393;-84
2021/04/30 06:41:51;;;;;;;22.25;12.40;;;8.40;99.90;;;;;;5092854;28;20020;-84
2021/04/30 06:44:17;;;;;;;17.60;10.95;;;8.40;99.90;;;;;;5093244;28;20046;-83
2021/04/30 06:46:43;;;;;;;19.77;12.05;;;8.50;99.90;;;;;;5093596;28;20041;-83
2021/04/30 06:49:09;;;;;;;15.38;11.77;;;8.50;99.90;;;;;;5094922;28;20097;-84
2021/04/30 06:51:34;;;;;;;18.83;11.27;;;8.50;99.90;;;;;;5094968;28;20469;-84
2021/04/30 06:54:01;;;;;;;16.25;11.40;;;8.50;99.90;;;;;;5093234;28;20028;-83
2021/04/30 06:56:30;;;;;;;18.83;12.40;;;8.50;99.90;;;;;;5099159;28;20027;-84
2021/04/30 06:58:56;;;;;;;18.85;12.77;;;8.60;99.90;;;;;;5104645;28;20035;-83
2021/04/30 07:01:22;;;;;;;17.88;12.25;;;8.60;99.90;;;;;;5101149;28;20026;-84
2021/04/30 07:03:48;;;;;;;20.00;12.75;;;8.70;99.90;;;;;;5093178;28;20036;-84
2021/04/30 07:06:15;;;;;;;24.15;14.48;;;8.70;99.90;;;;;;5093327;28;20040;-85
2021/04/30 07:08:41;;;;;;;17.88;12.52;;;8.70;99.90;;;;;;5092848;28;20146;-84
2021/04/30 07:11:07;;;;;;;18.77;12.95;;;8.80;99.90;;;;;;5093351;28;20494;-84
2021/04/30 07:13:35;;;;;;;20.13;14.30;;;8.90;99.90;;;;;;5094329;28;20072;-83
2021/04/30 07:16:05;;;;;;;19.85;13.43;;;9.00;99.90;;;;;;5092738;28;20092;-83
2021/04/30 07:18:31;;;;;;;20.90;13.40;;;9.10;99.90;;;;;;5090355;28;20024;-82
2021/04/30 07:20:56;;;;;;;18.33;13.70;;;9.10;99.90;;;;;;5092487;28;20016;-84
2021/04/30 07:23:22;;;;;;;20.23;13.88;;;9.20;99.90;;;;;;5092186;28;20106;-83
2021/04/30 07:25:49;;;;;;;17.45;13.32;;;9.30;99.90;;;;;;5092394;28;20044;-83
2021/04/30 07:28:14;;;;;;;21.88;14.27;;;9.30;99.90;;;;;;5092343;28;20557;-83
2021/04/30 07:30:40;;;;;;;20.52;14.88;;;9.30;99.90;;;;;;5091852;28;20048;-83
2021/04/30 07:33:06;;;;;;;22.20;15.40;;;9.40;99.90;;;;;;5092190;28;20032;-83
2021/04/30 07:35:31;;;;;;;23.55;16.70;;;9.50;99.90;;;;;;5092436;28;20056;-83
2021/04/30 07:37:57;;;;;;;20.15;15.73;;;9.60;99.90;;;;;;5093929;28;20028;-83
2021/04/30 07:40:22;;;;;;;23.48;15.98;;;9.70;99.90;;;;;;5092073;28;20474;-84
2021/04/30 07:42:48;;;;;;;23.52;18.73;;;9.80;99.90;;;;;;5092483;28;20020;-85
2021/04/30 07:45:14;;;;;;;22.88;16.38;;;9.90;99.90;;;;;;5092645;28;20047;-84
2021/04/30 07:47:40;;;;;;;22.05;15.57;;;9.90;99.90;;;;;;5093484;28;20044;-85
2021/04/30 07:50:06;;;;;;;22.00;17.80;;;10.10;99.90;;;;;;5092477;28;20031;-84
2021/04/30 07:52:32;;;;;;;27.17;19.23;;;10.10;99.90;;;;;;5093041;28;20032;-84
2021/04/30 07:55:01;;;;;;;28.25;18.35;;;10.10;99.90;;;;;;5092107;28;20024;-84
2021/04/30 07:57:28;;;;;;;19.55;15.68;;;10.10;99.90;;;;;;5092314;28;20073;-84
2021/04/30 07:59:54;;;;;;;20.77;15.45;;;10.10;99.90;;;;;;5092203;28;20020;-83
2021/04/30 08:02:19;;;;;;;20.30;15.38;;;10.20;99.90;;;;;;5092339;28;20120;-84
2021/04/30 08:04:45;;;;;;;22.58;15.80;;;10.30;99.90;;;;;;5093169;28;20028;-84
2021/04/30 08:07:10;;;;;;;19.38;15.18;;;10.30;99.90;;;;;;5091179;28;20067;-85
2021/04/30 08:09:36;;;;;;;21.50;17.10;;;10.40;99.90;;;;;;5092349;28;20119;-85
2021/04/30 08:12:01;;;;;;;28.13;19.75;;;10.50;99.90;;;;;;5093514;28;20454;-85
2021/04/30 08:14:29;;;;;;;25.00;18.15;;;10.60;99.90;;;;;;5093539;28;20016;-86
2021/04/30 08:16:55;;;;;;;24.10;17.85;;;10.60;99.90;;;;;;5093588;28;20020;-84
2021/04/30 08:19:20;;;;;;;28.55;20.70;;;10.60;99.90;;;;;;5093774;28;20031;-87
2021/04/30 08:21:46;;;;;;;30.33;21.30;;;10.80;99.90;;;;;;5096174;28;20016;-86
2021/04/30 08:24:12;;;;;;;24.00;19.40;;;10.90;99.90;;;;;;5100781;28;20032;-84
2021/04/30 08:26:37;;;;;;;27.92;20.88;;;11.00;99.90;;;;;;5108317;28;20016;-83
2021/04/30 08:29:03;;;;;;;22.67;18.55;;;11.10;99.90;;;;;;5112533;28;20028;-85
2021/04/30 08:31:29;;;;;;;25.23;20.90;;;11.20;99.90;;;;;;5113141;28;20026;-84
2021/04/30 08:33:55;;;;;;;32.30;23.17;;;11.30;99.90;;;;;;5113883;28;20024;-83
2021/04/30 08:36:21;;;;;;;24.08;19.92;;;11.20;99.90;;;;;;5121747;28;20024;-84
2021/04/30 08:38:47;;;;;;;26.73;21.67;;;11.20;99.90;;;;;;5116344;28;20035;-85
2021/04/30 08:41:15;;;;;;;25.88;19.80;;;11.20;99.90;;;;;;5113011;28;20028;-84
2021/04/30 08:43:41;;;;;;;26.33;22.15;;;11.10;99.90;;;;;;5113329;28;20089;-83
2021/04/30 08:46:10;;;;;;;26.30;19.95;;;11.00;99.90;;;;;;5112095;28;20020;-83
2021/04/30 08:48:36;;;;;;;23.98;18.05;;;10.90;99.90;;;;;;5112079;28;20055;-85
2021/04/30 08:51:01;;;;;;;23.63;18.63;;;10.90;99.90;;;;;;5113319;28;20035;-84
2021/04/30 08:53:27;;;;;;;28.92;20.10;;;10.90;99.90;;;;;;5106705;28;20053;-84
2021/04/30 08:55:53;;;;;;;23.95;18.13;;;11.00;99.90;;;;;;5111425;28;20034;-84
2021/04/30 08:58:26;;;;;;;20.52;17.75;;;11.00;99.90;;;;;;5111631;28;20038;-83
2021/04/30 09:00:55;;;;;;;19.90;15.93;;;11.10;99.90;;;;;;5110426;28;20058;-84
2021/04/30 09:03:21;;;;;;;20.55;17.90;;;11.10;99.90;;;;;;5110066;28;20008;-84
2021/04/30 09:05:54;;;;;;;24.00;18.33;;;11.10;99.90;;;;;;5111078;28;20031;-83
2021/04/30 09:08:20;;;;;;;;;;;11.20;99.90;;;;;;5112577;28;20060;-83
2021/04/30 09:10:51;;;;;;;29.27;22.20;;;11.20;99.90;;;;;;5111004;28;20276;-84
2021/04/30 09:13:21;;;;;;;26.10;20.58;;;11.10;99.90;;;;;;5108501;28;20020;-84
2021/04/30 09:15:49;;;;;;;24.98;19.13;;;11.10;99.90;;;;;;5108546;28;20125;-84
2021/04/30 09:18:25;;;;;;;26.60;20.20;;;11.10;99.90;;;;;;5112765;28;20023;-84
2021/04/30 09:20:54;;;;;;;25.23;20.10;;;11.10;99.90;;;;;;5113866;28;20012;-84
2021/04/30 09:23:35;;;;;;;26.40;22.55;;;11.10;99.90;;;;;;5115363;28;20110;-85
2021/04/30 09:26:22;;;;;;;29.30;23.50;;;11.10;99.90;;;;;;5113664;28;20024;-84
2021/04/30 09:29:08;;;;;;;27.60;22.33;;;11.00;99.90;;;;;;5113055;28;20134;-84
2021/04/30 09:31:45;;;;;;;27.10;20.33;;;10.90;99.90;;;;;;5113858;28;20026;-87
2021/04/30 09:34:35;;;;;;;25.83;20.17;;;10.90;99.90;;;;;;5114862;28;20116;-83
2021/04/30 09:37:16;;;;;;;25.42;19.73;;;11.00;99.90;;;;;;5101321;28;20481;-84
2021/04/30 09:39:53;;;;;;;28.27;20.52;;;10.90;99.90;;;;;;5114784;28;20032;-85
2021/04/30 09:42:27;;;;;;;24.52;19.13;;;10.90;99.90;;;;;;5113832;28;20027;-83
2021/04/30 09:44:57;;;;;;;23.23;19.23;;;10.90;99.90;;;;;;5102164;28;20027;-84
2021/04/30 09:47:28;;;;;;;28.38;21.95;;;10.90;99.90;;;;;;5100513;28;20028;-83
2021/04/30 09:49:57;;;;;;;26.38;19.67;;;10.90;99.90;;;;;;5112848;28;20011;-83
2021/04/30 09:52:24;;;;;;;25.88;22.48;;;10.80;99.90;;;;;;5113097;28;20034;-86
2021/04/30 09:54:51;;;;;;;28.70;23.55;;;10.80;99.90;;;;;;5112163;28;20019;-84
2021/04/30 09:57:26;;;;;;;26.73;21.63;;;10.70;99.90;;;;;;5110669;28;20058;-84
2021/04/30 09:59:52;;;;;;;26.65;19.17;;;10.60;99.90;;;;;;5096603;28;20020;-81
2021/04/30 10:02:19;;;;;;;24.23;21.13;;;10.60;99.90;;;;;;5092171;28;20057;-84
2021/04/30 10:04:50;;;;;;;24.42;19.67;;;10.60;99.90;;;;;;5097912;28;20023;-85
2021/04/30 10:07:33;;;;;;;24.88;19.48;;;10.60;99.90;;;;;;5112558;28;20039;-83
2021/04/30 10:10:12;;;;;;;23.48;19.10;;;10.60;99.90;;;;;;5112840;28;20023;-86
2021/04/30 10:13:00;;;;;;;21.58;18.42;;;10.60;99.90;;;;;;5113381;28;20069;-84
2021/04/30 10:15:27;;;;;;;22.42;18.15;;;10.50;99.90;;;;;;5113116;28;20020;-84
2021/04/30 10:17:57;;;;;;;20.00;16.90;;;10.50;99.90;;;;;;5105202;28;20473;-85
2021/04/30 10:20:23;;;;;;;19.85;16.77;;;10.40;99.90;;;;;;5113730;28;20012;-85
2021/04/30 10:22:49;;;;;;;21.65;18.33;;;10.40;99.90;;;;;;5100935;28;20567;-86
2021/04/30 10:25:19;;;;;;;26.55;21.05;;;10.40;99.90;;;;;;5092972;28;20024;-85
2021/04/30 10:27:50;;;;;;;25.00;20.05;;;10.30;99.90;;;;;;5093890;28;20045;-85
2021/04/30 10:30:38;;;;;;;22.10;18.25;;;10.20;99.90;;;;;;5092094;28;20020;-84
2021/04/30 10:33:28;;;;;;;22.58;18.52;;;10.20;99.90;;;;;;5092012;28;20028;-84
2021/04/30 10:36:01;;;;;;;26.63;21.92;;;10.10;99.90;;;;;;5091903;28;20093;-83
2021/04/30 10:38:30;;;;;;;25.73;20.88;;;10.00;99.90;;;;;;5091595;28;20081;-84
2021/04/30 10:41:06;;;;;;;23.48;20.00;;;10.00;99.90;;;;;;5097876;28;20027;-86
2021/04/30 10:43:33;;;;;;;25.48;20.08;;;10.10;99.90;;;;;;5108210;28;20450;-86
2021/04/30 10:46:03;;;;;;;23.02;18.85;;;10.10;99.90;;;;;;5107401;28;20036;-85
2021/04/30 10:48:31;;;;;;;25.10;20.15;;;10.10;99.90;;;;;;5111586;28;20733;-83
2021/04/30 10:51:14;;;;;;;24.13;19.52;;;10.10;99.90;;;;;;5112528;28;20026;-83
2021/04/30 10:53:42;;;;;;;28.02;21.65;;;10.20;99.90;;;;;;5113540;28;20441;-84
2021/04/30 10:56:34;;;;;;;26.35;21.63;;;10.20;99.90;;;;;;5112058;28;20016;-83
2021/04/30 10:58:59;;;;;;;25.38;20.63;;;10.20;99.90;;;;;;5111595;28;20023;-87
2021/04/30 11:01:28;;;;;;;23.55;20.83;;;10.40;99.90;;;;;;5093687;28;20026;-87
2021/04/30 11:04:09;;;;;;;24.77;20.55;;;10.70;99.90;;;;;;5093097;28;20115;-87
2021/04/30 11:06:37;;;;;;;30.90;24.08;;;11.00;99.90;;;;;;5092426;28;20086;-86
2021/04/30 11:09:25;;;;;;;30.48;24.35;;;11.30;99.90;;;;;;5094117;28;20127;-86
2021/04/30 11:11:51;;;;;;;30.90;25.40;;;11.60;99.90;;;;;;5092905;28;20031;-84
2021/04/30 11:14:35;;;;;;;29.13;24.83;;;11.80;99.90;;;;;;5094724;28;20024;-84
2021/04/30 11:17:02;;;;;;;28.25;21.85;;;12.10;99.90;;;;;;5097286;28;20039;-83
2021/04/30 11:19:30;;;;;;;25.45;21.67;;;12.30;99.90;;;;;;5112254;28;20023;-84
2021/04/30 11:22:13;;;;;;;25.95;22.30;;;12.50;99.90;;;;;;5113052;28;20513;-82
2021/04/30 11:24:45;;;;;;;23.10;20.08;;;12.50;99.90;;;;;;5106838;28;20019;-84
2021/04/30 11:27:19;;;;;;;21.90;18.85;;;12.40;99.90;;;;;;5110725;28;20036;-84
2021/04/30 11:29:46;;;;;;;25.35;21.67;;;12.40;99.90;;;;;;5110424;28;20054;-84
2021/04/30 11:32:27;;;;;;;22.48;19.40;;;12.20;99.90;;;;;;5112750;28;20077;-84
2021/04/30 11:34:54;;;;;;;24.48;19.42;;;12.10;99.90;;;;;;5111048;28;20489;-85
2021/04/30 11:37:21;;;;;;;20.92;17.98;;;12.10;99.90;;;;;;5111830;28;20509;-85
2021/04/30 11:39:47;;;;;;;24.75;18.58;;;12.10;99.90;;;;;;5110978;28;20465;-85
2021/04/30 11:42:14;;;;;;;21.65;18.83;;;12.10;99.90;;;;;;5111176;28;20024;-82
2021/04/30 11:44:43;;;;;;;23.38;19.20;;;12.10;99.90;;;;;;5110957;28;20039;-83
2021/04/30 11:47:15;;;;;;;23.05;18.67;;;12.10;99.90;;;;;;5113676;28;20039;-85
2021/04/30 11:49:41;;;;;;;21.08;18.02;;;12.20;99.90;;;;;;5112754;28;20028;-86
2021/04/30 11:52:11;;;;;;;21.65;19.02;;;12.40;99.90;;;;;;5112736;28;20079;-84
2021/04/30 11:54:39;;;;;;;24.77;20.17;;;12.40;99.90;;;;;;5111761;28;20019;-82
2021/04/30 11:57:09;;;;;;;23.02;20.10;;;12.60;99.90;;;;;;5111097;28;20024;-82
2021/04/30 11:59:37;;;;;;;23.00;20.60;;;12.80;99.90;;;;;;5110199;28;20032;-83
2021/04/30 12:02:09;;;;;;;21.35;17.83;;;12.90;99.90;;;;;;5103002;28;20056;-82
2021/04/30 12:04:45;;;;;;;19.05;16.85;;;13.10;99.90;;;;;;5109067;28;20063;-83
2021/04/30 12:07:14;;;;;;;17.73;15.65;;;13.20;99.90;;;;;;5110217;28;20104;-83
2021/04/30 12:09:40;;;;;;;20.98;17.83;;;13.30;99.90;;;;;;5105183;28;20430;-83
2021/04/30 12:12:26;;;;;;;23.33;18.40;;;13.30;99.90;;;;;;5102012;28;20057;-83
2021/04/30 12:15:00;;;;;;;21.33;17.75;;;13.30;99.90;;;;;;5091702;28;20123;-84
2021/04/30 12:17:30;;;;;;;18.50;16.50;;;13.40;99.90;;;;;;5099076;28;20035;-83
2021/04/30 12:19:56;;;;;;;19.90;17.02;;;13.30;99.90;;;;;;5109878;28;20485;-82
2021/04/30 12:22:22;;;;;;;18.10;14.93;;;13.20;99.90;;;;;;5098896;28;20039;-84
2021/04/30 12:24:48;;;;;;;17.60;15.02;;;13.10;99.90;;;;;;5089746;28;20024;-84
2021/04/30 12:27:25;;;;;;;17.50;14.73;;;13.10;99.90;;;;;;5094511;28;20389;-84
2021/04/30 12:29:52;;;;;;;14.93;12.65;;;13.30;99.90;;;;;;5108021;28;20024;-83
2021/04/30 12:32:32;;;;;;;14.52;12.43;;;13.50;99.90;;;;;;5101848;28;20082;-83
2021/04/30 12:34:58;;;;;;;19.27;14.45;;;13.80;99.90;;;;;;5092096;28;20028;-83
2021/04/30 12:37:24;;;;;;;15.75;12.43;;;13.90;99.90;;;;;;5108967;28;20019;-84
2021/04/30 12:39:50;;;;;;;18.73;13.90;;;14.10;99.90;;;;;;5106514;28;20024;-83